Terminal Aerodrome Forecast
Issued by NWS

Home | Current Version | Previous Version | Text Only | Print | Product List | Glossary On
Versions: 1 2 3 4 5 6 7 8 9 10 11 12 13
053
FTUS43 KICT 241120
TAFCNU
TAF
KCNU 241120Z 2412/2512 16005KT P6SM BKN250
     FM241300 16011KT P6SM BKN250
     FM241600 18018G26KT P6SM SCT250
     FM250100 18012KT P6SM SCT250
     FM250300 17010KT P6SM SCT250 WS020/20045KT=

USA.gov is the U.S. government's official web portal to all federal, state and local government web resources and services.